sensor_id;sensor_type;location;lat;lon;timestamp;P1;durP1;ratioP1;P2;durP2;ratioP2
12467;SDS011;57850;52.922;6.256;2022-12-05T00:01:16;24.87;;;15.00;;
12467;SDS011;57850;52.922;6.256;2022-12-05T00:03:46;21.15;;;13.75;;
12467;SDS011;57850;52.922;6.256;2022-12-05T00:06:14;22.37;;;15.30;;
12467;SDS011;57850;52.922;6.256;2022-12-05T00:08:41;20.83;;;13.20;;
12467;SDS011;57850;52.922;6.256;2022-12-05T00:11:11;21.77;;;14.67;;
12467;SDS011;57850;52.922;6.256;2022-12-05T00:13:38;25.63;;;15.10;;
12467;SDS011;57850;52.922;6.256;2022-12-05T00:16:08;24.57;;;15.03;;
12467;SDS011;57850;52.922;6.256;2022-12-05T00:18:37;24.83;;;14.97;;
12467;SDS011;57850;52.922;6.256;2022-12-05T00:21:04;29.27;;;15.77;;
12467;SDS011;57850;52.922;6.256;2022-12-05T00:23:31;23.83;;;15.73;;
12467;SDS011;57850;52.922;6.256;2022-12-05T00:26:00;25.95;;;15.25;;
12467;SDS011;57850;52.922;6.256;2022-12-05T00:28:27;26.97;;;15.60;;
12467;SDS011;57850;52.922;6.256;2022-12-05T00:30:54;24.30;;;16.07;;
12467;SDS011;57850;52.922;6.256;2022-12-05T00:33:22;27.13;;;15.37;;
12467;SDS011;57850;52.922;6.256;2022-12-05T00:35:48;27.30;;;16.58;;
12467;SDS011;57850;52.922;6.256;2022-12-05T00:38:15;26.98;;;16.42;;
12467;SDS011;57850;52.922;6.256;2022-12-05T00:40:41;26.27;;;15.20;;
12467;SDS011;57850;52.922;6.256;2022-12-05T00:43:08;24.52;;;14.85;;
12467;SDS011;57850;52.922;6.256;2022-12-05T00:45:34;24.30;;;15.00;;
12467;SDS011;57850;52.922;6.256;2022-12-05T00:48:01;27.17;;;15.95;;
12467;SDS011;57850;52.922;6.256;2022-12-05T00:50:28;25.00;;;15.35;;
12467;SDS011;57850;52.922;6.256;2022-12-05T00:52:55;23.67;;;15.57;;
12467;SDS011;57850;52.922;6.256;2022-12-05T00:55:21;22.17;;;14.32;;
12467;SDS011;57850;52.922;6.256;2022-12-05T00:57:48;24.27;;;15.10;;
12467;SDS011;57850;52.922;6.256;2022-12-05T01:00:15;25.63;;;15.60;;
12467;SDS011;57850;52.922;6.256;2022-12-05T01:02:42;23.27;;;14.65;;
12467;SDS011;57850;52.922;6.256;2022-12-05T01:05:08;23.73;;;14.77;;
12467;SDS011;57850;52.922;6.256;2022-12-05T01:07:37;20.92;;;14.23;;
12467;SDS011;57850;52.922;6.256;2022-12-05T01:10:04;24.60;;;14.75;;
12467;SDS011;57850;52.922;6.256;2022-12-05T01:12:32;23.92;;;15.13;;
12467;SDS011;57850;52.922;6.256;2022-12-05T01:15:00;27.88;;;16.23;;
12467;SDS011;57850;52.922;6.256;2022-12-05T01:17:27;23.90;;;14.37;;
12467;SDS011;57850;52.922;6.256;2022-12-05T01:19:53;25.60;;;15.20;;
12467;SDS011;57850;52.922;6.256;2022-12-05T01:22:20;27.40;;;15.37;;
12467;SDS011;57850;52.922;6.256;2022-12-05T01:24:48;24.63;;;15.50;;
12467;SDS011;57850;52.922;6.256;2022-12-05T01:27:14;23.90;;;15.33;;
12467;SDS011;57850;52.922;6.256;2022-12-05T01:29:41;22.90;;;15.40;;
12467;SDS011;57850;52.922;6.256;2022-12-05T01:32:07;26.33;;;15.73;;
12467;SDS011;57850;52.922;6.256;2022-12-05T01:34:34;26.08;;;17.33;;
12467;SDS011;57850;52.922;6.256;2022-12-05T01:37:00;25.83;;;16.95;;
12467;SDS011;57850;52.922;6.256;2022-12-05T01:39:27;27.50;;;16.23;;
12467;SDS011;57850;52.922;6.256;2022-12-05T01:41:55;30.40;;;17.70;;
12467;SDS011;57850;52.922;6.256;2022-12-05T01:47:27;33.60;;;18.50;;
12467;SDS011;57850;52.922;6.256;2022-12-05T01:49:56;29.02;;;17.90;;
12467;SDS011;57850;52.922;6.256;2022-12-05T01:52:23;32.97;;;18.50;;
12467;SDS011;57850;52.922;6.256;2022-12-05T01:54:55;31.30;;;18.52;;
12467;SDS011;57850;52.922;6.256;2022-12-05T01:57:25;30.80;;;18.77;;
12467;SDS011;57850;52.922;6.256;2022-12-05T01:59:52;32.78;;;18.83;;
12467;SDS011;57850;52.922;6.256;2022-12-05T02:02:23;35.03;;;19.77;;
12467;SDS011;57850;52.922;6.256;2022-12-05T02:04:51;34.65;;;19.02;;
12467;SDS011;57850;52.922;6.256;2022-12-05T02:07:26;37.22;;;20.45;;
12467;SDS011;57850;52.922;6.256;2022-12-05T02:09:53;36.28;;;19.27;;
12467;SDS011;57850;52.922;6.256;2022-12-05T02:12:19;35.33;;;21.77;;
12467;SDS011;57850;52.922;6.256;2022-12-05T02:14:50;36.60;;;20.48;;
12467;SDS011;57850;52.922;6.256;2022-12-05T02:17:28;32.90;;;20.52;;
12467;SDS011;57850;52.922;6.256;2022-12-05T02:20:03;32.20;;;19.40;;
12467;SDS011;57850;52.922;6.256;2022-12-05T02:25:52;31.98;;;19.48;;
12467;SDS011;57850;52.922;6.256;2022-12-05T02:28:52;32.13;;;19.58;;
12467;SDS011;57850;52.922;6.256;2022-12-05T02:31:49;36.72;;;19.73;;
12467;SDS011;57850;52.922;6.256;2022-12-05T02:34:22;31.10;;;18.42;;
12467;SDS011;57850;52.922;6.256;2022-12-05T02:36:54;31.85;;;20.55;;
12467;SDS011;57850;52.922;6.256;2022-12-05T02:39:23;32.58;;;20.05;;
12467;SDS011;57850;52.922;6.256;2022-12-05T02:42:00;32.83;;;19.55;;
12467;SDS011;57850;52.922;6.256;2022-12-05T02:44:31;33.10;;;19.23;;
12467;SDS011;57850;52.922;6.256;2022-12-05T02:47:03;31.92;;;18.58;;
12467;SDS011;57850;52.922;6.256;2022-12-05T02:49:33;33.97;;;19.95;;
12467;SDS011;57850;52.922;6.256;2022-12-05T02:52:04;28.73;;;18.25;;
12467;SDS011;57850;52.922;6.256;2022-12-05T02:54:35;30.02;;;19.02;;
12467;SDS011;57850;52.922;6.256;2022-12-05T02:57:04;33.05;;;19.17;;
12467;SDS011;57850;52.922;6.256;2022-12-05T02:59:33;35.13;;;20.13;;
12467;SDS011;57850;52.922;6.256;2022-12-05T03:01:59;36.20;;;18.73;;
12467;SDS011;57850;52.922;6.256;2022-12-05T03:04:27;27.98;;;17.23;;
12467;SDS011;57850;52.922;6.256;2022-12-05T03:06:57;32.45;;;19.02;;
12467;SDS011;57850;52.922;6.256;2022-12-05T03:09:26;35.15;;;19.52;;
12467;SDS011;57850;52.922;6.256;2022-12-05T03:12:00;26.98;;;17.20;;
12467;SDS011;57850;52.922;6.256;2022-12-05T03:14:32;31.65;;;19.08;;
12467;SDS011;57850;52.922;6.256;2022-12-05T03:17:04;32.08;;;18.05;;
12467;SDS011;57850;52.922;6.256;2022-12-05T03:19:41;32.30;;;18.45;;
12467;SDS011;57850;52.922;6.256;2022-12-05T03:22:14;29.98;;;18.60;;
12467;SDS011;57850;52.922;6.256;2022-12-05T03:24:47;30.48;;;17.42;;
12467;SDS011;57850;52.922;6.256;2022-12-05T03:27:14;28.60;;;18.92;;
12467;SDS011;57850;52.922;6.256;2022-12-05T03:29:49;30.23;;;18.10;;
12467;SDS011;57850;52.922;6.256;2022-12-05T03:32:21;28.42;;;18.08;;
12467;SDS011;57850;52.922;6.256;2022-12-05T03:35:00;30.35;;;17.75;;
12467;SDS011;57850;52.922;6.256;2022-12-05T03:37:33;31.42;;;18.20;;
12467;SDS011;57850;52.922;6.256;2022-12-05T03:40:10;32.47;;;19.58;;
12467;SDS011;57850;52.922;6.256;2022-12-05T03:42:46;28.85;;;18.35;;
12467;SDS011;57850;52.922;6.256;2022-12-05T03:45:19;28.35;;;17.85;;
12467;SDS011;57850;52.922;6.256;2022-12-05T03:47:52;34.85;;;18.75;;
12467;SDS011;57850;52.922;6.256;2022-12-05T03:50:31;27.80;;;17.73;;
12467;SDS011;57850;52.922;6.256;2022-12-05T03:53:04;28.55;;;17.30;;
12467;SDS011;57850;52.922;6.256;2022-12-05T03:55:36;26.42;;;17.67;;
12467;SDS011;57850;52.922;6.256;2022-12-05T03:58:06;25.88;;;16.33;;
12467;SDS011;57850;52.922;6.256;2022-12-05T04:00:38;24.55;;;15.38;;
12467;SDS011;57850;52.922;6.256;2022-12-05T04:03:08;21.23;;;14.00;;
12467;SDS011;57850;52.922;6.256;2022-12-05T04:05:40;24.17;;;15.32;;
12467;SDS011;57850;52.922;6.256;2022-12-05T04:08:10;19.48;;;14.02;;
12467;SDS011;57850;52.922;6.256;2022-12-05T04:10:42;22.48;;;13.98;;
12467;SDS011;57850;52.922;6.256;2022-12-05T04:13:15;21.75;;;14.25;;
12467;SDS011;57850;52.922;6.256;2022-12-05T04:15:48;19.40;;;13.43;;
12467;SDS011;57850;52.922;6.256;2022-12-05T04:18:52;19.13;;;13.40;;
12467;SDS011;57850;52.922;6.256;2022-12-05T04:21:26;17.30;;;12.52;;
12467;SDS011;57850;52.922;6.256;2022-12-05T04:24:03;16.10;;;12.07;;
12467;SDS011;57850;52.922;6.256;2022-12-05T04:26:45;16.88;;;11.43;;
12467;SDS011;57850;52.922;6.256;2022-12-05T04:29:18;18.55;;;11.65;;
12467;SDS011;57850;52.922;6.256;2022-12-05T04:31:51;17.58;;;12.43;;
12467;SDS011;57850;52.922;6.256;2022-12-05T04:34:23;14.45;;;11.25;;
12467;SDS011;57850;52.922;6.256;2022-12-05T04:36:54;16.35;;;11.18;;
12467;SDS011;57850;52.922;6.256;2022-12-05T04:39:26;16.38;;;10.90;;
12467;SDS011;57850;52.922;6.256;2022-12-05T04:41:56;15.65;;;10.75;;
12467;SDS011;57850;52.922;6.256;2022-12-05T04:44:29;15.75;;;11.00;;
12467;SDS011;57850;52.922;6.256;2022-12-05T04:46:59;14.90;;;10.63;;
12467;SDS011;57850;52.922;6.256;2022-12-05T04:49:29;15.00;;;10.15;;
12467;SDS011;57850;52.922;6.256;2022-12-05T04:52:01;14.18;;;10.50;;
12467;SDS011;57850;52.922;6.256;2022-12-05T04:54:33;15.52;;;11.38;;
12467;SDS011;57850;52.922;6.256;2022-12-05T04:57:04;14.85;;;10.23;;
12467;SDS011;57850;52.922;6.256;2022-12-05T04:59:37;13.73;;;10.02;;
12467;SDS011;57850;52.922;6.256;2022-12-05T05:02:05;13.27;;;10.57;;
12467;SDS011;57850;52.922;6.256;2022-12-05T05:04:34;14.02;;;10.38;;
12467;SDS011;57850;52.922;6.256;2022-12-05T05:07:06;14.93;;;10.00;;
12467;SDS011;57850;52.922;6.256;2022-12-05T05:09:33;12.02;;;9.95;;
12467;SDS011;57850;52.922;6.256;2022-12-05T05:12:00;13.45;;;10.75;;
12467;SDS011;57850;52.922;6.256;2022-12-05T05:14:27;16.95;;;9.98;;
12467;SDS011;57850;52.922;6.256;2022-12-05T05:16:53;14.90;;;9.60;;
12467;SDS011;57850;52.922;6.256;2022-12-05T05:19:21;13.25;;;9.73;;
12467;SDS011;57850;52.922;6.256;2022-12-05T05:21:48;12.20;;;9.50;;
12467;SDS011;57850;52.922;6.256;2022-12-05T05:24:16;12.30;;;9.23;;
12467;SDS011;57850;52.922;6.256;2022-12-05T05:26:43;11.25;;;8.60;;
12467;SDS011;57850;52.922;6.256;2022-12-05T05:29:11;13.98;;;8.85;;
12467;SDS011;57850;52.922;6.256;2022-12-05T05:31:39;11.45;;;8.80;;
12467;SDS011;57850;52.922;6.256;2022-12-05T05:34:06;10.82;;;8.43;;
12467;SDS011;57850;52.922;6.256;2022-12-05T05:36:34;10.93;;;7.78;;
12467;SDS011;57850;52.922;6.256;2022-12-05T05:39:01;11.23;;;7.57;;
12467;SDS011;57850;52.922;6.256;2022-12-05T05:41:30;10.05;;;7.85;;
12467;SDS011;57850;52.922;6.256;2022-12-05T05:43:58;10.32;;;8.65;;
12467;SDS011;57850;52.922;6.256;2022-12-05T05:46:27;12.05;;;8.10;;
12467;SDS011;57850;52.922;6.256;2022-12-05T05:48:56;8.90;;;7.35;;
12467;SDS011;57850;52.922;6.256;2022-12-05T05:51:23;9.70;;;7.15;;
12467;SDS011;57850;52.922;6.256;2022-12-05T05:53:52;10.70;;;7.82;;
12467;SDS011;57850;52.922;6.256;2022-12-05T05:56:19;9.30;;;6.95;;
12467;SDS011;57850;52.922;6.256;2022-12-05T05:58:47;8.75;;;6.95;;
12467;SDS011;57850;52.922;6.256;2022-12-05T06:01:19;9.07;;;7.00;;
12467;SDS011;57850;52.922;6.256;2022-12-05T06:03:45;10.43;;;7.20;;
12467;SDS011;57850;52.922;6.256;2022-12-05T06:06:13;8.43;;;6.32;;
12467;SDS011;57850;52.922;6.256;2022-12-05T06:08:40;8.50;;;6.95;;
12467;SDS011;57850;52.922;6.256;2022-12-05T06:11:10;9.35;;;7.05;;
12467;SDS011;57850;52.922;6.256;2022-12-05T06:13:38;9.32;;;7.38;;
12467;SDS011;57850;52.922;6.256;2022-12-05T06:16:06;8.90;;;7.15;;
12467;SDS011;57850;52.922;6.256;2022-12-05T06:18:34;9.20;;;6.93;;
12467;SDS011;57850;52.922;6.256;2022-12-05T06:21:02;9.70;;;7.25;;
12467;SDS011;57850;52.922;6.256;2022-12-05T06:23:30;10.40;;;7.70;;
12467;SDS011;57850;52.922;6.256;2022-12-05T06:25:56;10.27;;;7.38;;
12467;SDS011;57850;52.922;6.256;2022-12-05T06:28:23;11.35;;;8.05;;
12467;SDS011;57850;52.922;6.256;2022-12-05T06:30:51;9.90;;;7.82;;
12467;SDS011;57850;52.922;6.256;2022-12-05T06:33:19;12.93;;;7.40;;
12467;SDS011;57850;52.922;6.256;2022-12-05T06:35:45;12.30;;;8.43;;
12467;SDS011;57850;52.922;6.256;2022-12-05T06:38:12;9.38;;;6.40;;
12467;SDS011;57850;52.922;6.256;2022-12-05T06:40:39;10.80;;;7.55;;
12467;SDS011;57850;52.922;6.256;2022-12-05T06:43:07;10.55;;;7.90;;
12467;SDS011;57850;52.922;6.256;2022-12-05T06:45:35;10.77;;;8.15;;
12467;SDS011;57850;52.922;6.256;2022-12-05T06:48:02;11.07;;;8.05;;
12467;SDS011;57850;52.922;6.256;2022-12-05T06:50:30;10.65;;;7.68;;
12467;SDS011;57850;52.922;6.256;2022-12-05T06:52:57;12.32;;;8.43;;
12467;SDS011;57850;52.922;6.256;2022-12-05T06:55:23;9.93;;;8.25;;
12467;SDS011;57850;52.922;6.256;2022-12-05T06:57:50;10.93;;;8.05;;
12467;SDS011;57850;52.922;6.256;2022-12-05T07:00:17;10.45;;;7.70;;
12467;SDS011;57850;52.922;6.256;2022-12-05T07:03:01;9.68;;;7.35;;
12467;SDS011;57850;52.922;6.256;2022-12-05T07:05:27;9.35;;;7.47;;
12467;SDS011;57850;52.922;6.256;2022-12-05T07:07:55;8.45;;;6.80;;
12467;SDS011;57850;52.922;6.256;2022-12-05T07:10:22;9.20;;;7.90;;
12467;SDS011;57850;52.922;6.256;2022-12-05T07:12:48;9.95;;;7.85;;
12467;SDS011;57850;52.922;6.256;2022-12-05T07:15:15;8.63;;;7.13;;
12467;SDS011;57850;52.922;6.256;2022-12-05T07:17:42;10.10;;;7.63;;
12467;SDS011;57850;52.922;6.256;2022-12-05T07:20:09;9.07;;;7.35;;
12467;SDS011;57850;52.922;6.256;2022-12-05T07:22:37;10.70;;;7.63;;
12467;SDS011;57850;52.922;6.256;2022-12-05T07:25:05;10.65;;;8.43;;
12467;SDS011;57850;52.922;6.256;2022-12-05T07:27:32;11.55;;;7.80;;
12467;SDS011;57850;52.922;6.256;2022-12-05T07:29:59;11.80;;;8.30;;
12467;SDS011;57850;52.922;6.256;2022-12-05T07:32:25;12.32;;;8.32;;
12467;SDS011;57850;52.922;6.256;2022-12-05T07:34:52;11.23;;;8.50;;
12467;SDS011;57850;52.922;6.256;2022-12-05T07:37:18;11.15;;;8.25;;
12467;SDS011;57850;52.922;6.256;2022-12-05T07:39:45;10.95;;;8.05;;
12467;SDS011;57850;52.922;6.256;2022-12-05T07:42:14;10.38;;;8.15;;
12467;SDS011;57850;52.922;6.256;2022-12-05T07:44:40;12.05;;;8.55;;
12467;SDS011;57850;52.922;6.256;2022-12-05T07:47:07;12.13;;;8.98;;
12467;SDS011;57850;52.922;6.256;2022-12-05T07:49:34;11.38;;;8.07;;
12467;SDS011;57850;52.922;6.256;2022-12-05T07:52:00;10.70;;;8.15;;
12467;SDS011;57850;52.922;6.256;2022-12-05T07:54:27;12.77;;;8.13;;
12467;SDS011;57850;52.922;6.256;2022-12-05T07:56:53;13.90;;;8.65;;
12467;SDS011;57850;52.922;6.256;2022-12-05T07:59:21;12.85;;;8.57;;
12467;SDS011;57850;52.922;6.256;2022-12-05T08:01:48;10.38;;;8.52;;
12467;SDS011;57850;52.922;6.256;2022-12-05T08:04:14;15.27;;;8.40;;
12467;SDS011;57850;52.922;6.256;2022-12-05T08:06:41;11.32;;;8.40;;
12467;SDS011;57850;52.922;6.256;2022-12-05T08:09:08;16.65;;;9.07;;
12467;SDS011;57850;52.922;6.256;2022-12-05T08:11:34;11.85;;;8.73;;
12467;SDS011;57850;52.922;6.256;2022-12-05T08:14:02;13.23;;;9.13;;
12467;SDS011;57850;52.922;6.256;2022-12-05T08:16:31;13.27;;;8.73;;
12467;SDS011;57850;52.922;6.256;2022-12-05T08:18:59;14.70;;;9.23;;
12467;SDS011;57850;52.922;6.256;2022-12-05T08:21:26;15.77;;;9.07;;
12467;SDS011;57850;52.922;6.256;2022-12-05T08:23:53;16.35;;;9.48;;
12467;SDS011;57850;52.922;6.256;2022-12-05T08:26:21;16.92;;;9.80;;
12467;SDS011;57850;52.922;6.256;2022-12-05T08:28:50;14.18;;;9.32;;
12467;SDS011;57850;52.922;6.256;2022-12-05T08:31:17;15.73;;;9.63;;
12467;SDS011;57850;52.922;6.256;2022-12-05T08:33:48;20.38;;;9.35;;
12467;SDS011;57850;52.922;6.256;2022-12-05T08:36:16;17.55;;;9.70;;
12467;SDS011;57850;52.922;6.256;2022-12-05T08:38:44;19.75;;;9.07;;
12467;SDS011;57850;52.922;6.256;2022-12-05T08:41:12;15.85;;;10.13;;
12467;SDS011;57850;52.922;6.256;2022-12-05T08:43:40;12.98;;;8.43;;
12467;SDS011;57850;52.922;6.256;2022-12-05T08:46:07;14.20;;;9.25;;
12467;SDS011;57850;52.922;6.256;2022-12-05T08:48:34;16.77;;;9.00;;
12467;SDS011;57850;52.922;6.256;2022-12-05T08:51:04;18.02;;;9.32;;
12467;SDS011;57850;52.922;6.256;2022-12-05T08:53:32;14.88;;;9.57;;
12467;SDS011;57850;52.922;6.256;2022-12-05T08:56:00;15.57;;;8.70;;
12467;SDS011;57850;52.922;6.256;2022-12-05T08:58:27;15.88;;;8.95;;
12467;SDS011;57850;52.922;6.256;2022-12-05T09:00:54;16.40;;;9.02;;
12467;SDS011;57850;52.922;6.256;2022-12-05T09:03:20;15.88;;;8.65;;
12467;SDS011;57850;52.922;6.256;2022-12-05T09:05:47;14.52;;;7.88;;
12467;SDS011;57850;52.922;6.256;2022-12-05T09:08:14;16.20;;;9.25;;
12467;SDS011;57850;52.922;6.256;2022-12-05T09:10:41;15.57;;;8.52;;
12467;SDS011;57850;52.922;6.256;2022-12-05T09:13:08;16.10;;;8.20;;
12467;SDS011;57850;52.922;6.256;2022-12-05T09:15:36;19.00;;;9.10;;
12467;SDS011;57850;52.922;6.256;2022-12-05T09:18:03;18.00;;;9.02;;
12467;SDS011;57850;52.922;6.256;2022-12-05T09:20:30;14.52;;;8.02;;
12467;SDS011;57850;52.922;6.256;2022-12-05T09:22:56;12.88;;;8.60;;
12467;SDS011;57850;52.922;6.256;2022-12-05T09:25:24;12.68;;;7.28;;
12467;SDS011;57850;52.922;6.256;2022-12-05T09:27:51;10.43;;;7.45;;
12467;SDS011;57850;52.922;6.256;2022-12-05T09:30:18;14.43;;;7.72;;
12467;SDS011;57850;52.922;6.256;2022-12-05T09:32:45;11.70;;;7.57;;
12467;SDS011;57850;52.922;6.256;2022-12-05T09:35:12;10.38;;;7.97;;
12467;SDS011;57850;52.922;6.256;2022-12-05T09:37:39;12.25;;;8.25;;
12467;SDS011;57850;52.922;6.256;2022-12-05T09:40:06;13.35;;;7.88;;
12467;SDS011;57850;52.922;6.256;2022-12-05T09:42:46;11.38;;;7.43;;
12467;SDS011;57850;52.922;6.256;2022-12-05T09:45:22;11.70;;;7.22;;
12467;SDS011;57850;52.922;6.256;2022-12-05T09:47:53;13.82;;;7.47;;
12467;SDS011;57850;52.922;6.256;2022-12-05T09:50:25;11.65;;;6.88;;
12467;SDS011;57850;52.922;6.256;2022-12-05T09:55:48;13.15;;;9.07;;
12467;SDS011;57850;52.922;6.256;2022-12-05T09:58:24;12.50;;;8.15;;
12467;SDS011;57850;52.922;6.256;2022-12-05T10:00:56;11.60;;;8.23;;
12467;SDS011;57850;52.922;6.256;2022-12-05T10:03:28;13.98;;;8.20;;
12467;SDS011;57850;52.922;6.256;2022-12-05T10:06:14;14.20;;;8.20;;
12467;SDS011;57850;52.922;6.256;2022-12-05T10:08:53;14.35;;;7.88;;
12467;SDS011;57850;52.922;6.256;2022-12-05T10:11:27;10.32;;;7.70;;
12467;SDS011;57850;52.922;6.256;2022-12-05T10:14:03;13.73;;;8.02;;
12467;SDS011;57850;52.922;6.256;2022-12-05T10:16:40;15.30;;;8.32;;
12467;SDS011;57850;52.922;6.256;2022-12-05T10:19:14;14.73;;;8.30;;
12467;SDS011;57850;52.922;6.256;2022-12-05T10:21:46;14.55;;;8.77;;
12467;SDS011;57850;52.922;6.256;2022-12-05T10:24:19;12.18;;;8.13;;
12467;SDS011;57850;52.922;6.256;2022-12-05T10:26:53;11.27;;;7.93;;
12467;SDS011;57850;52.922;6.256;2022-12-05T10:29:26;12.15;;;8.48;;
12467;SDS011;57850;52.922;6.256;2022-12-05T10:32:00;15.85;;;8.88;;
12467;SDS011;57850;52.922;6.256;2022-12-05T10:34:30;15.15;;;8.63;;
12467;SDS011;57850;52.922;6.256;2022-12-05T10:37:01;13.68;;;8.57;;
12467;SDS011;57850;52.922;6.256;2022-12-05T10:39:35;13.38;;;8.98;;
12467;SDS011;57850;52.922;6.256;2022-12-05T10:42:02;12.88;;;8.60;;
12467;SDS011;57850;52.922;6.256;2022-12-05T10:44:31;14.57;;;8.65;;
12467;SDS011;57850;52.922;6.256;2022-12-05T10:46:58;15.30;;;9.60;;
12467;SDS011;57850;52.922;6.256;2022-12-05T10:49:25;15.43;;;8.25;;
12467;SDS011;57850;52.922;6.256;2022-12-05T10:51:53;13.18;;;9.05;;
12467;SDS011;57850;52.922;6.256;2022-12-05T10:54:19;13.07;;;8.88;;
12467;SDS011;57850;52.922;6.256;2022-12-05T10:56:49;13.85;;;8.25;;
12467;SDS011;57850;52.922;6.256;2022-12-05T10:59:19;14.07;;;8.25;;
12467;SDS011;57850;52.922;6.256;2022-12-05T11:01:49;13.52;;;7.90;;
12467;SDS011;57850;52.922;6.256;2022-12-05T11:04:22;14.40;;;8.40;;
12467;SDS011;57850;52.922;6.256;2022-12-05T11:06:52;10.75;;;8.20;;
12467;SDS011;57850;52.922;6.256;2022-12-05T11:09:22;11.13;;;7.97;;
12467;SDS011;57850;52.922;6.256;2022-12-05T11:11:59;12.48;;;8.32;;
12467;SDS011;57850;52.922;6.256;2022-12-05T11:14:29;14.23;;;7.95;;
12467;SDS011;57850;52.922;6.256;2022-12-05T11:16:59;12.65;;;8.27;;
12467;SDS011;57850;52.922;6.256;2022-12-05T11:19:27;15.02;;;9.77;;
12467;SDS011;57850;52.922;6.256;2022-12-05T11:21:57;13.43;;;8.55;;
12467;SDS011;57850;52.922;6.256;2022-12-05T11:24:25;12.93;;;8.27;;
12467;SDS011;57850;52.922;6.256;2022-12-05T11:26:53;11.68;;;7.88;;
12467;SDS011;57850;52.922;6.256;2022-12-05T11:29:31;12.27;;;7.20;;
12467;SDS011;57850;52.922;6.256;2022-12-05T11:32:01;9.82;;;7.43;;
12467;SDS011;57850;52.922;6.256;2022-12-05T11:34:30;10.80;;;6.97;;
12467;SDS011;57850;52.922;6.256;2022-12-05T11:37:04;9.43;;;6.90;;
12467;SDS011;57850;52.922;6.256;2022-12-05T11:39:36;12.25;;;7.40;;
12467;SDS011;57850;52.922;6.256;2022-12-05T11:42:15;9.93;;;6.63;;
12467;SDS011;57850;52.922;6.256;2022-12-05T11:44:57;8.85;;;6.45;;
12467;SDS011;57850;52.922;6.256;2022-12-05T11:47:54;8.98;;;6.57;;
12467;SDS011;57850;52.922;6.256;2022-12-05T11:50:34;8.25;;;6.00;;
12467;SDS011;57850;52.922;6.256;2022-12-05T11:53:10;8.18;;;5.93;;
12467;SDS011;57850;52.922;6.256;2022-12-05T11:55:53;9.80;;;6.07;;
12467;SDS011;57850;52.922;6.256;2022-12-05T11:58:37;8.18;;;6.45;;
12467;SDS011;57850;52.922;6.256;2022-12-05T12:01:15;9.18;;;6.65;;
12467;SDS011;57850;52.922;6.256;2022-12-05T12:04:01;9.40;;;5.93;;
12467;SDS011;57850;52.922;6.256;2022-12-05T12:06:45;8.18;;;5.88;;
12467;SDS011;57850;52.922;6.256;2022-12-05T12:09:27;9.73;;;6.25;;
12467;SDS011;57850;52.922;6.256;2022-12-05T12:12:05;10.40;;;5.78;;
12467;SDS011;57850;52.922;6.256;2022-12-05T12:14:43;10.20;;;5.90;;
12467;SDS011;57850;52.922;6.256;2022-12-05T12:17:18;9.75;;;6.43;;
12467;SDS011;57850;52.922;6.256;2022-12-05T12:19:58;10.00;;;6.55;;
12467;SDS011;57850;52.922;6.256;2022-12-05T12:22:40;10.07;;;6.20;;
12467;SDS011;57850;52.922;6.256;2022-12-05T12:25:27;9.23;;;5.72;;
12467;SDS011;57850;52.922;6.256;2022-12-05T12:28:06;12.10;;;6.78;;
12467;SDS011;57850;52.922;6.256;2022-12-05T12:30:52;9.27;;;6.25;;
12467;SDS011;57850;52.922;6.256;2022-12-05T12:33:29;11.68;;;6.20;;
12467;SDS011;57850;52.922;6.256;2022-12-05T12:36:02;9.38;;;5.53;;
12467;SDS011;57850;52.922;6.256;2022-12-05T12:38:51;7.32;;;5.72;;
12467;SDS011;57850;52.922;6.256;2022-12-05T12:41:41;10.00;;;5.82;;
12467;SDS011;57850;52.922;6.256;2022-12-05T12:44:23;11.48;;;6.25;;
12467;SDS011;57850;52.922;6.256;2022-12-05T12:47:22;7.97;;;5.35;;
12467;SDS011;57850;52.922;6.256;2022-12-05T12:50:01;7.18;;;5.00;;
12467;SDS011;57850;52.922;6.256;2022-12-05T12:52:41;7.32;;;4.72;;
12467;SDS011;57850;52.922;6.256;2022-12-05T12:55:21;7.65;;;5.07;;
12467;SDS011;57850;52.922;6.256;2022-12-05T12:57:59;7.50;;;5.10;;
12467;SDS011;57850;52.922;6.256;2022-12-05T13:00:39;5.53;;;4.13;;
12467;SDS011;57850;52.922;6.256;2022-12-05T13:03:16;7.60;;;4.53;;
12467;SDS011;57850;52.922;6.256;2022-12-05T13:05:47;5.93;;;4.43;;
12467;SDS011;57850;52.922;6.256;2022-12-05T13:08:20;5.38;;;4.38;;
12467;SDS011;57850;52.922;6.256;2022-12-05T13:10:51;7.15;;;4.57;;
12467;SDS011;57850;52.922;6.256;2022-12-05T13:13:19;5.72;;;4.45;;
12467;SDS011;57850;52.922;6.256;2022-12-05T13:15:49;7.10;;;4.35;;
12467;SDS011;57850;52.922;6.256;2022-12-05T13:18:20;6.70;;;4.78;;
12467;SDS011;57850;52.922;6.256;2022-12-05T13:20:48;5.47;;;4.57;;
12467;SDS011;57850;52.922;6.256;2022-12-05T13:23:17;5.82;;;4.55;;
12467;SDS011;57850;52.922;6.256;2022-12-05T13:25:48;6.68;;;4.47;;
12467;SDS011;57850;52.922;6.256;2022-12-05T13:28:20;7.20;;;4.80;;
12467;SDS011;57850;52.922;6.256;2022-12-05T13:30:51;8.07;;;4.35;;
12467;SDS011;57850;52.922;6.256;2022-12-05T13:33:31;6.53;;;4.82;;
12467;SDS011;57850;52.922;6.256;2022-12-05T13:36:04;6.13;;;4.38;;
12467;SDS011;57850;52.922;6.256;2022-12-05T13:38:56;7.63;;;5.18;;
12467;SDS011;57850;52.922;6.256;2022-12-05T13:41:42;5.45;;;4.35;;
12467;SDS011;57850;52.922;6.256;2022-12-05T13:44:31;5.78;;;4.45;;
12467;SDS011;57850;52.922;6.256;2022-12-05T13:47:01;5.38;;;3.92;;
12467;SDS011;57850;52.922;6.256;2022-12-05T13:49:32;7.25;;;4.25;;
12467;SDS011;57850;52.922;6.256;2022-12-05T13:52:07;7.97;;;4.93;;
12467;SDS011;57850;52.922;6.256;2022-12-05T13:54:41;4.75;;;3.60;;
12467;SDS011;57850;52.922;6.256;2022-12-05T14:02:57;6.55;;;3.72;;
12467;SDS011;57850;52.922;6.256;2022-12-05T14:05:36;6.68;;;3.65;;
12467;SDS011;57850;52.922;6.256;2022-12-05T14:11:12;5.97;;;3.58;;
12467;SDS011;57850;52.922;6.256;2022-12-05T14:13:41;5.68;;;3.70;;
12467;SDS011;57850;52.922;6.256;2022-12-05T14:19:11;6.07;;;3.72;;
12467;SDS011;57850;52.922;6.256;2022-12-05T14:21:47;4.57;;;3.42;;
12467;SDS011;57850;52.922;6.256;2022-12-05T14:24:26;5.15;;;3.67;;
12467;SDS011;57850;52.922;6.256;2022-12-05T14:27:03;5.40;;;4.13;;
12467;SDS011;57850;52.922;6.256;2022-12-05T14:29:36;5.60;;;4.07;;
12467;SDS011;57850;52.922;6.256;2022-12-05T14:32:13;8.65;;;4.90;;
12467;SDS011;57850;52.922;6.256;2022-12-05T14:34:51;5.75;;;4.00;;
12467;SDS011;57850;52.922;6.256;2022-12-05T14:37:23;5.65;;;4.03;;
12467;SDS011;57850;52.922;6.256;2022-12-05T14:39:54;7.75;;;4.32;;
12467;SDS011;57850;52.922;6.256;2022-12-05T14:42:25;8.27;;;4.35;;
12467;SDS011;57850;52.922;6.256;2022-12-05T14:44:57;5.53;;;4.20;;
12467;SDS011;57850;52.922;6.256;2022-12-05T14:47:27;7.93;;;4.53;;
12467;SDS011;57850;52.922;6.256;2022-12-05T14:49:58;8.73;;;4.95;;
12467;SDS011;57850;52.922;6.256;2022-12-05T14:52:28;9.77;;;4.60;;
12467;SDS011;57850;52.922;6.256;2022-12-05T14:54:58;8.43;;;4.60;;
12467;SDS011;57850;52.922;6.256;2022-12-05T14:57:35;5.97;;;4.32;;
12467;SDS011;57850;52.922;6.256;2022-12-05T15:00:16;6.50;;;4.43;;
12467;SDS011;57850;52.922;6.256;2022-12-05T15:02:46;6.70;;;5.15;;
12467;SDS011;57850;52.922;6.256;2022-12-05T15:05:18;6.28;;;4.45;;
12467;SDS011;57850;52.922;6.256;2022-12-05T15:07:49;5.78;;;3.97;;
12467;SDS011;57850;52.922;6.256;2022-12-05T15:10:19;5.47;;;4.05;;
12467;SDS011;57850;52.922;6.256;2022-12-05T15:12:50;6.25;;;4.43;;
12467;SDS011;57850;52.922;6.256;2022-12-05T15:15:23;7.40;;;4.63;;
12467;SDS011;57850;52.922;6.256;2022-12-05T15:17:58;9.45;;;5.22;;